Time;durP1;ratioP1;P1;durP2;ratioP2;P2;SDS_P1;SDS_P2;PMS_P1;PMS_P2;Temp;Humidity;BMP_temperature;BMP_pressure;BME280_temperature;BME280_humidity;BME280_pressure;Samples;Min_cycle;Max_cycle;Signal;HPM_P1;HPM_P2
2023/05/01 00:01:27;;;;;;;1.13;0.50;;;12.20;99.90;;;;;;5046011;28;20055;-70
2023/05/01 00:03:53;;;;;;;2.42;0.82;;;12.20;99.90;;;;;;5036323;28;20025;-70
2023/05/01 00:06:25;;;;;;;5.00;0.93;;;12.20;99.90;;;;;;5031871;28;20033;-71
2023/05/01 00:08:53;;;;;;;2.25;1.05;;;12.20;99.90;;;;;;5033082;28;20486;-71
2023/05/01 00:11:18;;;;;;;2.33;0.88;;;12.10;99.90;;;;;;5032564;28;20551;-70
2023/05/01 00:13:44;;;;;;;4.60;1.08;;;12.20;99.90;;;;;;5032614;28;20147;-71
2023/05/01 00:16:11;;;;;;;2.83;1.00;;;12.10;99.90;;;;;;5053414;28;20064;-70
2023/05/01 00:18:37;;;;;;;3.03;0.77;;;12.10;99.90;;;;;;5032188;28;20035;-71
2023/05/01 00:21:03;;;;;;;6.20;1.70;;;12.20;99.90;;;;;;5045812;28;20037;-71
2023/05/01 00:23:32;;;;;;;4.55;0.90;;;12.10;99.90;;;;;;5032033;28;20098;-72
2023/05/01 00:26:01;;;;;;;2.55;1.08;;;12.10;99.90;;;;;;5031570;28;20025;-70
2023/05/01 00:28:26;;;;;;;3.78;0.77;;;12.00;99.90;;;;;;5045486;28;20041;-71
2023/05/01 00:30:52;;;;;;;5.53;0.93;;;12.00;99.90;;;;;;5046273;28;20094;-71
2023/05/01 00:33:17;;;;;;;2.15;0.70;;;11.90;99.90;;;;;;5045935;28;20702;-72
2023/05/01 00:35:44;;;;;;;1.45;0.52;;;11.80;99.90;;;;;;5045809;28;20131;-71
2023/05/01 00:38:15;;;;;;;4.22;0.65;;;11.80;99.90;;;;;;5046411;28;20535;-70
2023/05/01 00:40:45;;;;;;;2.95;0.88;;;11.90;99.90;;;;;;5035162;28;20041;-70
2023/05/01 00:43:11;;;;;;;2.83;1.10;;;11.90;99.90;;;;;;5046711;28;20033;-70
2023/05/01 00:45:38;;;;;;;5.22;0.82;;;11.80;99.90;;;;;;5044587;28;20485;-70
2023/05/01 00:48:10;;;;;;;2.38;1.10;;;11.80;99.90;;;;;;5046175;28;20494;-70
2023/05/01 00:50:36;;;;;;;2.55;0.77;;;11.80;99.90;;;;;;5044945;28;20106;-70
2023/05/01 00:53:01;;;;;;;1.88;0.93;;;11.80;99.90;;;;;;5032879;28;20501;-70
2023/05/01 00:55:27;;;;;;;2.38;1.15;;;11.80;99.90;;;;;;5031147;28;20037;-70
2023/05/01 00:57:55;;;;;;;5.05;1.10;;;11.70;99.90;;;;;;5033160;28;20060;-70
2023/05/01 01:00:23;;;;;;;3.40;1.27;;;11.70;99.90;;;;;;5044096;28;20731;-71
2023/05/01 01:02:54;;;;;;;1.40;0.65;;;11.60;99.90;;;;;;5046489;28;20370;-70
2023/05/01 01:05:23;;;;;;;2.17;0.73;;;11.60;99.90;;;;;;5045485;28;20029;-76
2023/05/01 01:08:05;;;;;;;4.15;1.10;;;11.50;99.90;;;;;;5035364;28;20040;-71
2023/05/01 01:10:36;;;;;;;1.17;0.57;;;11.40;99.90;;;;;;5037666;28;20401;-70
2023/05/01 01:13:35;;;;;;;1.90;0.73;;;11.30;99.90;;;;;;5046231;28;20040;-70
2023/05/01 01:16:26;;;;;;;2.15;0.90;;;11.20;99.90;;;;;;4999245;28;20072;-71
2023/05/01 01:19:09;;;;;;;2.58;1.15;;;11.20;99.90;;;;;;5045998;28;20032;-70
2023/05/01 01:21:48;;;;;;;2.97;0.80;;;11.20;99.90;;;;;;5035047;28;20120;-70
2023/05/01 01:24:51;;;;;;;1.58;0.80;;;11.20;99.90;;;;;;5043606;28;20025;-70
2023/05/01 01:27:56;;;;;;;5.70;0.70;;;11.20;99.90;;;;;;5042994;28;20025;-71
2023/05/01 01:30:51;;;;;;;2.90;0.77;;;11.20;99.90;;;;;;5042899;28;20037;-70
2023/05/01 01:33:47;;;;;;;5.38;0.95;;;11.20;99.90;;;;;;5043819;28;20037;-70
2023/05/01 01:36:21;;;;;;;1.35;0.93;;;11.20;99.90;;;;;;5028845;28;20029;-70
2023/05/01 01:39:15;;;;;;;6.43;1.60;;;11.10;99.90;;;;;;5031345;28;20041;-70
2023/05/01 01:41:44;;;;;;;2.53;1.10;;;11.20;99.90;;;;;;5044529;28;20040;-71
2023/05/01 01:44:29;;;;;;;3.67;0.85;;;11.10;99.90;;;;;;5042957;28;20547;-70
2023/05/01 01:46:57;;;;;;;1.70;0.73;;;11.10;99.90;;;;;;5032141;28;20059;-70
2023/05/01 01:49:26;;;;;;;3.15;0.90;;;11.10;99.90;;;;;;5033446;28;20041;-71
2023/05/01 01:51:54;;;;;;;2.65;1.00;;;11.10;99.90;;;;;;5045822;28;20037;-72
2023/05/01 01:54:26;;;;;;;1.35;0.60;;;11.10;99.90;;;;;;5044921;28;20035;-71
2023/05/01 01:56:58;;;;;;;5.18;0.77;;;11.10;99.90;;;;;;5045074;28;20075;-71
2023/05/01 01:59:25;;;;;;;5.22;1.42;;;11.10;99.90;;;;;;5034878;28;20041;-71
2023/05/01 02:01:54;;;;;;;4.60;0.70;;;11.20;99.90;;;;;;5032383;28;20025;-70
2023/05/01 02:04:21;;;;;;;5.53;1.25;;;11.20;99.90;;;;;;5035270;28;20037;-71
2023/05/01 02:06:52;;;;;;;4.05;0.80;;;11.20;99.90;;;;;;5044490;28;20094;-70
2023/05/01 02:09:19;;;;;;;4.60;0.95;;;11.20;99.90;;;;;;5035683;28;20041;-70
2023/05/01 02:11:47;;;;;;;4.78;1.15;;;11.20;99.90;;;;;;5045614;28;20037;-70
2023/05/01 02:14:14;;;;;;;4.35;0.70;;;11.20;99.90;;;;;;5036222;28;20058;-70
2023/05/01 02:16:41;;;;;;;5.97;0.80;;;11.20;99.90;;;;;;5045274;28;20183;-70
2023/05/01 02:19:07;;;;;;;1.65;0.60;;;11.20;99.90;;;;;;5023462;28;20487;-71
2023/05/01 02:21:42;;;;;;;6.85;0.85;;;11.10;99.90;;;;;;5044583;28;20025;-70
2023/05/01 02:24:13;;;;;;;2.38;0.80;;;11.20;99.90;;;;;;5042873;28;20083;-70
2023/05/01 02:26:42;;;;;;;6.18;1.00;;;11.20;99.90;;;;;;5031444;28;20548;-71
2023/05/01 02:29:17;;;;;;;4.40;1.08;;;11.20;99.90;;;;;;5024545;28;20618;-70
2023/05/01 02:31:43;;;;;;;5.22;1.30;;;11.10;99.90;;;;;;5035333;28;20036;-70
2023/05/01 02:34:08;;;;;;;3.63;0.80;;;11.20;99.90;;;;;;5036218;28;20051;-70
2023/05/01 02:36:34;;;;;;;4.43;0.80;;;11.20;99.90;;;;;;5045452;28;20032;-70
2023/05/01 02:39:00;;;;;;;2.45;1.23;;;11.30;99.90;;;;;;5045871;28;20037;-70
2023/05/01 02:41:31;;;;;;;3.20;1.00;;;11.20;99.90;;;;;;5044462;28;20036;-70
2023/05/01 02:44:03;;;;;;;3.80;0.85;;;11.20;99.90;;;;;;5045853;28;20037;-70
2023/05/01 02:46:35;;;;;;;3.10;0.88;;;11.20;99.90;;;;;;5047892;28;20029;-71
2023/05/01 02:49:05;;;;;;;4.18;1.20;;;11.10;99.90;;;;;;5048813;28;20021;-71
2023/05/01 02:51:37;;;;;;;3.90;1.17;;;11.10;99.90;;;;;;5038061;28;20104;-71
2023/05/01 02:54:03;;;;;;;3.08;0.95;;;11.10;99.90;;;;;;5048992;28;20124;-70
2023/05/01 02:56:32;;;;;;;6.07;1.08;;;11.00;99.90;;;;;;5032786;28;20120;-71
2023/05/01 02:58:57;;;;;;;6.35;1.20;;;11.00;99.90;;;;;;5035737;28;20025;-71
2023/05/01 03:01:23;;;;;;;4.47;1.10;;;11.00;99.90;;;;;;5047726;28;20059;-70
2023/05/01 03:03:48;;;;;;;1.35;0.80;;;11.00;99.90;;;;;;5030612;28;20030;-70
2023/05/01 03:06:14;;;;;;;1.95;0.93;;;11.00;99.90;;;;;;5048073;28;20029;-70
2023/05/01 03:08:43;;;;;;;2.55;1.20;;;11.00;99.90;;;;;;5046700;28;21565;-70
2023/05/01 03:11:14;;;;;;;13.15;1.25;;;11.00;99.90;;;;;;5048085;28;20044;-70
2023/05/01 03:13:40;;;;;;;3.80;1.08;;;11.00;99.90;;;;;;5046611;28;20123;-70
2023/05/01 03:16:09;;;;;;;3.03;0.82;;;11.00;99.90;;;;;;5038440;28;20113;-70
2023/05/01 03:18:43;;;;;;;3.72;0.80;;;11.00;99.90;;;;;;5032959;28;20452;-71
2023/05/01 03:21:11;;;;;;;3.67;1.20;;;11.00;99.90;;;;;;5044621;28;20068;-71
2023/05/01 03:23:37;;;;;;;5.70;1.40;;;11.00;99.90;;;;;;5030758;28;20029;-71
2023/05/01 03:26:06;;;;;;;3.75;0.82;;;11.10;99.90;;;;;;5028458;28;20037;-71
2023/05/01 03:28:34;;;;;;;2.42;1.00;;;11.10;99.90;;;;;;5045848;28;20378;-71
2023/05/01 03:31:00;;;;;;;3.17;0.77;;;11.10;99.90;;;;;;5037781;28;20029;-70
2023/05/01 03:33:26;;;;;;;2.33;1.17;;;11.10;99.90;;;;;;5045767;28;20456;-72
2023/05/01 03:36:00;;;;;;;2.60;1.13;;;11.10;99.90;;;;;;5033751;28;20029;-71
2023/05/01 03:38:27;;;;;;;2.50;1.38;;;11.00;99.90;;;;;;5032904;28;20064;-71
2023/05/01 03:40:56;;;;;;;3.80;0.90;;;11.10;99.90;;;;;;5046792;28;20053;-71
2023/05/01 03:43:22;;;;;;;2.47;0.98;;;11.10;99.90;;;;;;5031424;28;20044;-71
2023/05/01 03:45:54;;;;;;;2.42;0.90;;;11.10;99.90;;;;;;5030286;28;20033;-70
2023/05/01 03:48:19;;;;;;;3.50;1.13;;;11.00;99.90;;;;;;5032810;28;20060;-72
2023/05/01 03:50:45;;;;;;;4.22;1.10;;;11.00;99.90;;;;;;5046976;28;20103;-69
2023/05/01 03:53:15;;;;;;;3.35;1.27;;;11.10;99.90;;;;;;5037368;28;20393;-71
2023/05/01 03:55:43;;;;;;;4.18;0.93;;;11.00;99.90;;;;;;5036933;28;20049;-70
2023/05/01 03:58:12;;;;;;;3.83;0.93;;;11.10;99.90;;;;;;5046807;28;20106;-71
2023/05/01 04:00:43;;;;;;;8.65;0.77;;;11.10;99.90;;;;;;5035303;28;20049;-71
2023/05/01 04:03:12;;;;;;;4.22;0.90;;;11.10;99.90;;;;;;5034284;28;20059;-70
2023/05/01 04:05:37;;;;;;;2.20;1.15;;;11.10;99.90;;;;;;5029650;28;20191;-70
2023/05/01 04:08:06;;;;;;;4.35;1.35;;;11.10;99.90;;;;;;5034209;28;20128;-71
2023/05/01 04:10:31;;;;;;;1.80;0.80;;;11.00;99.90;;;;;;5043894;28;20412;-70
2023/05/01 04:13:00;;;;;;;3.33;1.10;;;10.90;99.90;;;;;;5032589;28;20052;-70
2023/05/01 04:15:25;;;;;;;2.38;0.82;;;10.90;99.90;;;;;;5031410;28;20049;-70
2023/05/01 04:17:51;;;;;;;2.08;0.93;;;10.90;99.90;;;;;;5032792;28;20036;-70
2023/05/01 04:20:18;;;;;;;3.85;0.98;;;11.00;99.90;;;;;;5048959;28;20048;-71
2023/05/01 04:22:43;;;;;;;1.95;1.00;;;11.00;99.90;;;;;;5044050;28;20678;-70
2023/05/01 04:25:12;;;;;;;4.15;1.83;;;10.90;99.90;;;;;;5049874;28;20171;-71
2023/05/01 04:27:47;;;;;;;4.45;0.90;;;10.90;99.90;;;;;;5046228;28;20033;-70
2023/05/01 04:30:12;;;;;;;4.75;1.63;;;10.90;99.90;;;;;;5046127;28;20033;-71
2023/05/01 04:32:41;;;;;;;3.95;1.15;;;10.90;99.90;;;;;;5052145;28;20566;-70
2023/05/01 04:35:12;;;;;;;3.92;1.40;;;10.90;99.90;;;;;;5035631;28;20079;-70
2023/05/01 04:37:38;;;;;;;2.50;0.90;;;10.90;99.90;;;;;;5034682;28;20045;-70
2023/05/01 04:40:04;;;;;;;4.13;1.50;;;10.90;99.90;;;;;;5045790;28;20041;-70
2023/05/01 04:42:36;;;;;;;6.45;1.70;;;10.90;99.90;;;;;;5044660;28;20040;-71
2023/05/01 04:45:03;;;;;;;2.45;0.70;;;10.90;99.90;;;;;;5025670;28;20041;-71
2023/05/01 04:47:34;;;;;;;2.88;1.13;;;10.90;99.90;;;;;;5035926;28;20030;-71
2023/05/01 04:50:00;;;;;;;2.85;1.08;;;10.90;99.90;;;;;;5042160;28;20099;-70
2023/05/01 04:52:25;;;;;;;4.78;1.30;;;10.90;99.90;;;;;;5031728;28;20076;-71
2023/05/01 04:54:51;;;;;;;7.78;1.35;;;10.90;99.90;;;;;;5033172;28;20032;-71
2023/05/01 04:57:19;;;;;;;5.75;1.30;;;10.90;99.90;;;;;;5053546;28;20031;-72
2023/05/01 04:59:46;;;;;;;3.20;1.10;;;10.90;99.90;;;;;;5044399;28;20473;-71
2023/05/01 05:02:18;;;;;;;3.08;1.15;;;11.00;99.90;;;;;;5033867;28;20029;-69
2023/05/01 05:04:43;;;;;;;5.55;1.23;;;11.00;99.90;;;;;;5029561;28;20033;-69
2023/05/01 05:07:09;;;;;;;8.57;1.20;;;11.00;99.90;;;;;;5038098;28;20187;-71
2023/05/01 05:09:44;;;;;;;2.70;1.10;;;11.00;99.90;;;;;;5037447;28;20119;-71
2023/05/01 05:12:09;;;;;;;2.17;0.80;;;11.00;99.90;;;;;;5034629;28;20109;-70
2023/05/01 05:14:38;;;;;;;3.88;1.40;;;11.00;99.90;;;;;;5044068;28;20040;-70
2023/05/01 05:17:06;;;;;;;4.28;1.77;;;11.00;99.90;;;;;;5045913;28;20488;-70
2023/05/01 05:19:32;;;;;;;2.85;1.10;;;11.00;99.90;;;;;;5043971;28;20401;-71
2023/05/01 05:21:57;;;;;;;2.10;1.00;;;11.10;99.90;;;;;;5033836;28;20029;-70
2023/05/01 05:24:23;;;;;;;4.78;1.05;;;11.10;99.90;;;;;;5044243;28;20586;-71
2023/05/01 05:26:49;;;;;;;3.50;1.15;;;11.10;99.90;;;;;;5045898;28;20029;-70
2023/05/01 05:29:21;;;;;;;4.65;1.10;;;11.00;99.90;;;;;;5032810;28;20490;-70
2023/05/01 05:31:46;;;;;;;1.98;0.88;;;11.00;99.90;;;;;;5045486;28;20053;-70
2023/05/01 05:34:12;;;;;;;2.13;1.13;;;11.10;99.90;;;;;;5052439;28;20480;-70
2023/05/01 05:36:38;;;;;;;5.88;1.17;;;11.10;99.90;;;;;;5034258;28;20154;-70
2023/05/01 05:39:06;;;;;;;8.02;1.70;;;11.10;99.90;;;;;;5045539;28;20049;-70
2023/05/01 05:41:32;;;;;;;2.67;1.45;;;11.10;99.90;;;;;;5032989;28;20041;-71
2023/05/01 05:44:00;;;;;;;7.65;1.60;;;11.10;99.90;;;;;;5045327;28;20515;-71
2023/05/01 05:46:29;;;;;;;3.30;1.05;;;11.20;99.90;;;;;;5027418;28;20803;-72
2023/05/01 05:48:57;;;;;;;6.95;1.17;;;11.30;99.90;;;;;;5041801;28;20110;-71
2023/05/01 05:51:23;;;;;;;3.47;1.20;;;11.30;99.90;;;;;;5050938;28;20033;-71
2023/05/01 05:53:48;;;;;;;6.25;1.42;;;11.30;99.90;;;;;;5045439;28;20044;-70
2023/05/01 05:56:14;;;;;;;5.15;1.27;;;11.30;99.90;;;;;;5045800;28;20021;-71
2023/05/01 05:58:45;;;;;;;4.85;1.38;;;11.30;99.90;;;;;;5033488;28;20400;-70
2023/05/01 06:01:17;;;;;;;4.93;1.00;;;11.30;99.90;;;;;;5044897;28;20183;-71
2023/05/01 06:03:43;;;;;;;5.35;2.00;;;11.30;99.90;;;;;;5044901;28;20060;-71
2023/05/01 06:06:11;;;;;;;4.55;1.77;;;11.40;99.90;;;;;;5044052;28;20061;-71
2023/05/01 06:08:39;;;;;;;7.13;1.52;;;11.30;99.90;;;;;;5045000;28;20033;-70
2023/05/01 06:11:07;;;;;;;6.90;1.30;;;11.30;99.90;;;;;;5036236;28;20400;-71
2023/05/01 06:13:33;;;;;;;3.55;1.23;;;11.30;99.90;;;;;;5034311;28;20044;-70
2023/05/01 06:16:06;;;;;;;4.07;1.48;;;11.40;99.90;;;;;;5046115;28;20033;-70
2023/05/01 06:18:31;;;;;;;5.63;1.60;;;11.40;99.90;;;;;;5045044;28;20052;-70
2023/05/01 06:21:00;;;;;;;3.25;1.48;;;11.40;99.90;;;;;;5048195;28;20041;-71
2023/05/01 06:23:25;;;;;;;6.10;1.70;;;11.40;99.90;;;;;;5049167;28;20043;-71
2023/05/01 06:26:00;;;;;;;3.40;1.70;;;11.40;99.90;;;;;;5049704;28;20033;-71
2023/05/01 06:28:26;;;;;;;4.13;1.00;;;11.50;99.90;;;;;;5032259;28;20080;-70
2023/05/01 06:30:51;;;;;;;4.55;1.48;;;11.50;99.90;;;;;;5044960;28;20314;-71
2023/05/01 06:33:20;;;;;;;8.45;1.42;;;11.60;99.90;;;;;;5049437;28;20041;-76
2023/05/01 06:35:46;;;;;;;3.72;1.20;;;11.60;99.90;;;;;;5036932;28;20039;-71
2023/05/01 06:38:15;;;;;;;11.55;1.90;;;11.70;99.90;;;;;;5049383;28;20389;-71
2023/05/01 06:40:40;;;;;;;7.82;1.50;;;11.70;99.90;;;;;;5047843;28;20045;-71
2023/05/01 06:43:06;;;;;;;4.07;1.40;;;11.80;99.90;;;;;;5048182;28;20044;-70
2023/05/01 06:45:38;;;;;;;3.67;1.65;;;11.90;99.90;;;;;;5047763;28;20029;-70
2023/05/01 06:48:04;;;;;;;3.85;1.48;;;11.90;99.90;;;;;;5049041;28;20064;-70
2023/05/01 06:50:30;;;;;;;5.90;1.45;;;12.00;99.90;;;;;;5038408;28;20052;-71
2023/05/01 06:52:57;;;;;;;4.47;1.50;;;12.10;99.90;;;;;;5048639;28;20159;-70
2023/05/01 06:55:30;;;;;;;7.05;1.42;;;12.10;99.90;;;;;;5034564;28;20063;-72
2023/05/01 06:57:59;;;;;;;6.93;2.17;;;12.20;99.90;;;;;;5031918;28;20037;-70
2023/05/01 07:00:24;;;;;;;3.90;2.10;;;12.30;99.90;;;;;;5047154;28;20045;-70
2023/05/01 07:02:53;;;;;;;7.05;1.23;;;12.40;99.90;;;;;;5047684;28;20048;-70
2023/05/01 07:05:21;;;;;;;6.65;1.40;;;12.50;99.90;;;;;;5048032;28;20040;-70
2023/05/01 07:07:48;;;;;;;9.15;1.42;;;12.50;99.90;;;;;;5034334;28;20028;-70
2023/05/01 07:10:13;;;;;;;5.72;1.60;;;12.50;99.90;;;;;;5037948;28;20584;-70
2023/05/01 07:12:39;;;;;;;5.13;1.40;;;12.50;99.90;;;;;;5036902;28;20127;-70
2023/05/01 07:15:05;;;;;;;7.07;1.50;;;12.50;99.90;;;;;;5034819;28;20048;-70
2023/05/01 07:17:55;;;;;;;3.20;1.15;;;12.60;99.90;;;;;;5046339;28;20152;-71
2023/05/01 07:20:20;;;;;;;6.57;1.65;;;12.70;99.90;;;;;;5025302;28;20052;-72
2023/05/01 07:22:46;;;;;;;3.20;1.55;;;12.80;99.90;;;;;;5046754;28;20032;-70
2023/05/01 07:25:19;;;;;;;14.40;1.77;;;12.90;99.90;;;;;;5047459;28;20123;-71
2023/05/01 07:27:47;;;;;;;5.28;1.73;;;12.90;99.90;;;;;;5046280;28;20029;-70
2023/05/01 07:30:13;;;;;;;5.35;1.15;;;13.00;99.90;;;;;;5030234;28;20574;-70
2023/05/01 07:32:42;;;;;;;6.82;2.20;;;13.10;99.90;;;;;;5035426;28;20040;-71
2023/05/01 07:35:14;;;;;;;6.47;1.30;;;13.20;99.90;;;;;;5034266;28;20041;-70
2023/05/01 07:37:42;;;;;;;4.90;1.40;;;13.30;99.90;;;;;;5046364;28;20045;-72
2023/05/01 07:40:08;;;;;;;5.28;1.40;;;13.40;99.90;;;;;;5030988;28;20060;-70
2023/05/01 07:42:34;;;;;;;6.00;1.90;;;13.50;99.90;;;;;;5046035;28;20041;-70
2023/05/01 07:45:03;;;;;;;6.18;1.83;;;13.60;99.90;;;;;;5047253;28;20596;-70
2023/05/01 07:47:28;;;;;;;5.53;1.73;;;13.70;99.90;;;;;;5030750;28;20045;-71
2023/05/01 07:49:54;;;;;;;6.82;1.75;;;13.80;99.90;;;;;;5031349;28;20106;-71
2023/05/01 07:52:19;;;;;;;5.10;1.80;;;13.90;99.90;;;;;;5051572;28;20186;-70
2023/05/01 07:54:49;;;;;;;4.95;1.23;;;13.90;99.90;;;;;;5044822;28;20122;-70
2023/05/01 07:57:18;;;;;;;5.72;1.52;;;14.00;99.90;;;;;;5046926;28;20033;-70
2023/05/01 07:59:43;;;;;;;4.85;1.58;;;14.10;99.90;;;;;;5035797;28;20056;-71
2023/05/01 08:02:09;;;;;;;7.10;1.92;;;14.10;99.90;;;;;;5046887;28;20138;-70
2023/05/01 08:04:47;;;;;;;4.43;1.65;;;14.20;99.90;;;;;;5035001;28;20041;-70
2023/05/01 08:07:13;;;;;;;4.95;1.80;;;14.10;99.90;;;;;;5047602;28;20619;-70
2023/05/01 08:09:38;;;;;;;4.43;1.60;;;14.20;99.90;;;;;;5046741;28;20436;-71
2023/05/01 08:12:13;;;;;;;7.75;1.55;;;14.20;99.90;;;;;;5048537;28;20029;-70
2023/05/01 08:14:39;;;;;;;3.88;1.75;;;14.30;99.90;;;;;;5035822;28;20673;-70
2023/05/01 08:17:14;;;;;;;4.95;1.35;;;14.40;99.90;;;;;;5046700;28;20021;-70
2023/05/01 08:19:39;;;;;;;7.63;1.55;;;14.50;99.90;;;;;;5029382;28;20133;-70
2023/05/01 08:22:05;;;;;;;5.10;1.80;;;14.50;99.90;;;;;;5044803;28;20558;-70
2023/05/01 08:24:33;;;;;;;5.53;2.35;;;14.60;99.90;;;;;;5045753;28;20584;-70
2023/05/01 08:27:05;;;;;;;7.45;1.30;;;14.60;99.90;;;;;;5046802;28;20025;-70
2023/05/01 08:29:30;;;;;;;5.18;1.90;;;14.70;99.90;;;;;;5031130;28;20043;-72
2023/05/01 08:31:59;;;;;;;5.93;2.47;;;14.80;99.90;;;;;;5031690;28;20037;-70
2023/05/01 08:34:25;;;;;;;10.68;1.65;;;14.80;99.90;;;;;;5044834;28;20037;-69
2023/05/01 08:36:50;;;;;;;3.75;1.50;;;14.90;99.90;;;;;;5046388;28;20116;-71
2023/05/01 08:39:16;;;;;;;3.80;1.42;;;15.00;99.90;;;;;;5046362;28;20204;-71
2023/05/01 08:41:54;;;;;;;3.13;1.55;;;15.20;99.90;;;;;;5044637;28;20045;-70
2023/05/01 08:44:23;;;;;;;4.35;1.40;;;15.40;99.90;;;;;;5030184;28;20060;-70
2023/05/01 08:47:11;;;;;;;9.68;1.80;;;15.70;99.90;;;;;;5030577;28;20041;-70
2023/05/01 08:49:39;;;;;;;4.97;1.67;;;15.80;99.90;;;;;;5044686;28;20497;-71
2023/05/01 08:52:10;;;;;;;8.68;1.63;;;15.90;99.90;;;;;;5046040;28;20521;-70
2023/05/01 08:54:38;;;;;;;4.07;1.60;;;15.90;99.90;;;;;;5035119;28;20112;-71
2023/05/01 08:57:07;;;;;;;4.65;1.50;;;16.00;99.90;;;;;;5046059;28;20127;-70
2023/05/01 08:59:36;;;;;;;2.60;1.40;;;16.10;99.50;;;;;;5044527;28;20041;-71
2023/05/01 09:02:04;;;;;;;4.43;1.90;;;16.10;99.50;;;;;;5045841;28;20033;-70
2023/05/01 09:04:40;;;;;;;7.22;1.77;;;16.10;99.70;;;;;;5035257;28;20036;-70
2023/05/01 09:07:06;;;;;;;6.18;1.80;;;16.00;99.60;;;;;;5044360;28;20155;-70
2023/05/01 09:09:35;;;;;;;5.63;1.70;;;15.90;98.90;;;;;;5031311;28;20052;-71
2023/05/01 09:12:23;;;;;;;3.85;1.33;;;15.80;99.60;;;;;;5046458;28;20037;-70
2023/05/01 09:14:54;;;;;;;8.63;1.98;;;15.90;99.70;;;;;;5033109;28;20389;-71
2023/05/01 09:17:21;;;;;;;3.78;1.52;;;16.00;99.90;;;;;;5045304;28;20048;-70
2023/05/01 09:19:48;;;;;;;6.53;1.50;;;16.20;99.10;;;;;;5044537;28;20821;-71
2023/05/01 09:22:15;;;;;;;6.50;1.92;;;16.30;98.90;;;;;;5046170;28;20025;-71
2023/05/01 09:24:46;;;;;;;6.30;1.80;;;16.50;99.00;;;;;;5029597;28;20037;-71
2023/05/01 09:27:18;;;;;;;3.55;1.75;;;16.70;99.50;;;;;;5031390;28;20099;-72
2023/05/01 09:29:46;;;;;;;4.90;1.30;;;16.80;99.10;;;;;;5028403;28;20371;-70
2023/05/01 09:32:22;;;;;;;4.82;1.70;;;16.90;98.50;;;;;;5031841;28;20485;-71
2023/05/01 09:34:48;;;;;;;6.82;1.40;;;17.10;98.30;;;;;;5043629;28;20064;-71
2023/05/01 09:37:27;;;;;;;5.53;1.60;;;17.20;98.40;;;;;;5046486;28;20041;-71
2023/05/01 09:40:06;;;;;;;5.97;1.52;;;17.30;97.90;;;;;;5033151;28;20033;-71
2023/05/01 09:42:50;;;;;;;5.13;1.45;;;17.30;97.60;;;;;;5035890;28;20045;-71
2023/05/01 09:45:18;;;;;;;9.27;1.63;;;17.30;97.70;;;;;;5033020;28;20090;-70
2023/05/01 09:47:47;;;;;;;6.47;1.92;;;17.40;97.60;;;;;;5031564;28;20037;-71
2023/05/01 09:50:35;;;;;;;6.75;1.73;;;17.40;97.60;;;;;;5040722;28;20037;-70
2023/05/01 09:53:03;;;;;;;3.33;1.63;;;17.50;97.70;;;;;;5033101;28;20036;-70
2023/05/01 09:55:29;;;;;;;7.13;1.45;;;17.50;97.40;;;;;;5036925;28;20082;-70
2023/05/01 09:58:00;;;;;;;3.15;1.83;;;17.50;97.40;;;;;;5048692;28;20147;-70
2023/05/01 10:00:26;;;;;;;7.10;2.15;;;17.60;97.30;;;;;;5038136;28;20037;-71
2023/05/01 10:02:52;;;;;;;4.38;1.90;;;17.50;97.40;;;;;;5047093;28;20040;-71
2023/05/01 10:05:22;;;;;;;5.00;1.80;;;17.50;98.00;;;;;;5042238;28;20036;-71
2023/05/01 10:07:58;;;;;;;6.05;1.65;;;17.40;98.40;;;;;;5035706;28;20043;-70
2023/05/01 10:10:24;;;;;;;3.85;1.60;;;17.20;98.40;;;;;;5039640;28;20029;-70
2023/05/01 10:13:16;;;;;;;4.78;1.65;;;17.10;98.20;;;;;;5054615;28;20040;-69
2023/05/01 10:15:49;;;;;;;7.57;1.80;;;17.00;98.70;;;;;;5035544;28;21082;-70
2023/05/01 10:18:17;;;;;;;3.85;2.00;;;16.90;99.10;;;;;;5037589;28;20033;-70
2023/05/01 10:20:42;;;;;;;5.53;1.63;;;17.10;99.10;;;;;;5049809;28;20049;-70
2023/05/01 10:23:20;;;;;;;2.80;1.35;;;16.90;98.60;;;;;;5051364;28;20029;-70
2023/05/01 10:25:48;;;;;;;6.18;1.77;;;16.90;99.00;;;;;;5046264;28;20120;-70
2023/05/01 10:28:14;;;;;;;7.78;2.17;;;16.90;99.00;;;;;;5049545;28;20036;-71
2023/05/01 10:30:41;;;;;;;5.30;1.25;;;17.00;99.40;;;;;;5055437;28;20041;-71
2023/05/01 10:33:13;;;;;;;2.90;1.52;;;17.00;99.90;;;;;;5049736;28;20040;-70
2023/05/01 10:35:49;;;;;;;2.83;1.50;;;17.20;99.90;;;;;;5044426;28;20045;-70
2023/05/01 10:38:30;;;;;;;6.38;1.65;;;17.30;99.90;;;;;;5037128;28;20083;-71
2023/05/01 10:41:02;;;;;;;6.88;1.92;;;17.30;99.90;;;;;;5038321;28;20065;-71
2023/05/01 10:43:29;;;;;;;5.43;1.50;;;17.30;99.90;;;;;;5048007;28;20103;-71
2023/05/01 10:46:26;;;;;;;5.10;1.55;;;17.10;99.90;;;;;;5037091;28;20060;-71
2023/05/01 10:48:53;;;;;;;7.07;2.25;;;17.00;99.60;;;;;;5045964;28;20052;-72
2023/05/01 10:51:23;;;;;;;8.32;1.80;;;16.90;99.80;;;;;;5048954;28;20116;-71
2023/05/01 10:54:07;;;;;;;;;;;16.80;99.90;;;;;;5038747;28;20033;-71
2023/05/01 10:56:41;;;;;;;3.72;1.58;;;16.80;99.90;;;;;;5047510;28;19920;-70
2023/05/01 10:59:07;;;;;;;6.43;2.30;;;16.80;99.90;;;;;;5043794;28;20047;-70
2023/05/01 11:01:50;;;;;;;6.45;2.03;;;16.70;99.90;;;;;;5036775;28;20605;-70
2023/05/01 11:04:20;;;;;;;5.03;1.92;;;16.70;99.90;;;;;;5048640;28;20067;-69
2023/05/01 11:07:07;;;;;;;5.88;1.85;;;16.80;99.90;;;;;;5037269;28;20029;-71
2023/05/01 11:09:56;;;;;;;5.20;2.22;;;16.80;99.90;;;;;;5029423;28;20489;-69
2023/05/01 11:12:46;;;;;;;4.15;2.15;;;16.80;99.90;;;;;;5029239;28;20037;-72
2023/05/01 11:15:32;;;;;;;8.65;2.53;;;16.70;99.90;;;;;;5030601;28;20037;-70
2023/05/01 11:18:05;;;;;;;7.38;2.22;;;16.60;99.90;;;;;;5030013;28;20041;-70
2023/05/01 11:20:37;;;;;;;5.57;2.35;;;16.60;99.90;;;;;;5046351;28;20047;-70
2023/05/01 11:23:02;;;;;;;7.13;2.72;;;16.50;99.90;;;;;;5047818;28;20138;-70
2023/05/01 11:25:30;;;;;;;10.68;2.13;;;16.40;99.90;;;;;;5036664;28;20094;-70
2023/05/01 11:28:01;;;;;;;6.07;2.08;;;16.20;99.90;;;;;;5037797;28;20047;-70
2023/05/01 11:30:36;;;;;;;5.97;2.45;;;16.10;99.90;;;;;;5046315;28;20051;-70
2023/05/01 11:33:11;;;;;;;5.68;2.38;;;16.00;99.90;;;;;;5047408;28;20055;-71
2023/05/01 11:35:43;;;;;;;5.63;2.00;;;15.90;99.90;;;;;;5041754;28;20040;-71
2023/05/01 11:38:17;;;;;;;12.50;2.08;;;15.80;99.90;;;;;;5037481;28;20075;-70
2023/05/01 11:40:43;;;;;;;5.93;2.15;;;15.70;99.90;;;;;;5045541;28;20049;-71
2023/05/01 11:43:10;;;;;;;6.75;2.63;;;15.60;99.90;;;;;;5030817;28;20419;-71
2023/05/01 11:45:36;;;;;;;4.75;1.75;;;15.50;99.90;;;;;;5046376;28;20236;-71
2023/05/01 11:48:02;;;;;;;8.60;2.17;;;15.30;99.90;;;;;;5030832;28;20036;-71
2023/05/01 11:50:32;;;;;;;5.65;1.80;;;15.20;99.90;;;;;;5029786;28;20413;-72
2023/05/01 11:53:01;;;;;;;7.38;2.20;;;15.20;99.90;;;;;;5031032;28;20040;-71
2023/05/01 11:55:31;;;;;;;5.47;2.00;;;15.00;99.90;;;;;;5029216;28;20109;-72
2023/05/01 11:57:58;;;;;;;9.45;1.75;;;14.70;99.90;;;;;;5031104;28;20033;-71
2023/05/01 12:00:27;;;;;;;4.82;2.55;;;14.60;99.90;;;;;;5045511;28;20079;-72
2023/05/01 12:03:07;;;;;;;4.53;1.55;;;14.40;99.90;;;;;;5047139;28;20665;-71
2023/05/01 12:05:35;;;;;;;8.55;2.05;;;14.20;99.90;;;;;;5042344;28;20552;-71
2023/05/01 12:08:10;;;;;;;4.75;1.90;;;14.00;99.90;;;;;;5046600;28;20056;-71
2023/05/01 12:10:36;;;;;;;6.13;2.13;;;13.90;99.90;;;;;;5041559;28;20036;-72
2023/05/01 12:13:03;;;;;;;5.53;1.80;;;13.90;99.90;;;;;;5036072;28;20041;-71
2023/05/01 12:15:30;;;;;;;4.35;1.88;;;13.80;99.90;;;;;;5045821;28;20179;-71
2023/05/01 12:17:56;;;;;;;3.75;1.58;;;13.80;99.90;;;;;;5036508;28;20041;-70
2023/05/01 12:20:51;;;;;;;9.50;2.28;;;13.70;99.90;;;;;;5046986;28;20040;-71
2023/05/01 12:23:18;;;;;;;8.60;2.30;;;13.70;99.90;;;;;;5035139;28;20105;-70
2023/05/01 12:25:44;;;;;;;6.85;2.33;;;13.70;99.90;;;;;;5046344;28;20071;-70
2023/05/01 12:28:12;;;;;;;6.85;2.05;;;13.80;99.90;;;;;;5046862;28;20033;-71
2023/05/01 12:30:39;;;;;;;4.50;1.90;;;13.80;99.90;;;;;;5045240;28;20043;-70
2023/05/01 12:33:19;;;;;;;8.23;2.75;;;13.80;99.90;;;;;;5033237;28;20041;-69
2023/05/01 12:35:46;;;;;;;6.20;2.15;;;13.90;99.90;;;;;;5042807;28;20058;-69
2023/05/01 12:38:14;;;;;;;10.63;1.63;;;14.00;99.90;;;;;;5028041;28;20683;-69
2023/05/01 12:40:54;;;;;;;4.25;1.95;;;14.00;99.90;;;;;;5029502;28;20156;-71
2023/05/01 12:43:31;;;;;;;8.48;2.80;;;14.00;99.90;;;;;;5029812;28;20033;-71
2023/05/01 12:46:00;;;;;;;5.00;2.08;;;14.00;99.90;;;;;;5021940;28;20419;-72
2023/05/01 12:48:31;;;;;;;6.70;2.13;;;14.10;99.90;;;;;;5028995;28;20500;-70
2023/05/01 12:50:58;;;;;;;12.75;2.17;;;14.20;99.90;;;;;;5027496;28;20412;-70
2023/05/01 12:53:25;;;;;;;5.07;1.83;;;14.20;99.90;;;;;;5044998;28;20052;-70
2023/05/01 12:55:56;;;;;;;3.88;1.88;;;14.40;99.90;;;;;;5045859;28;20120;-70
2023/05/01 12:58:22;;;;;;;5.07;1.90;;;14.40;99.90;;;;;;5046075;28;20041;-70
2023/05/01 13:00:51;;;;;;;6.13;2.20;;;14.50;99.90;;;;;;5044413;28;20795;-69
2023/05/01 13:03:29;;;;;;;8.52;2.05;;;14.60;99.90;;;;;;5045868;28;20043;-70